Time;durP1;ratioP1;P1;durP2;ratioP2;P2;SDS_P1;SDS_P2;PMS_P1;PMS_P2;Temp;Humidity;BMP_temperature;BMP_pressure;BME280_temperature;BME280_humidity;BME280_pressure;Samples;Min_cycle;Max_cycle;Signal;HPM_P1;HPM_P2
2023/07/01 00:01:44;;;;;;;;;;;;;;;19.42;43.02;100056.47;4929608;28;98208;-69
2023/07/01 00:04:12;;;;;;;;;;;;;;;19.42;42.97;100054.53;4919193;28;98106;-69
2023/07/01 00:06:41;;;;;;;;;;;;;;;19.44;42.84;100052.25;4926959;28;97948;-69
2023/07/01 00:09:11;;;;;;;;;;;;;;;19.45;42.82;100044.84;4937502;28;99437;-70
2023/07/01 00:11:38;;;;;;;;;;;;;;;19.46;42.98;100049.19;4944226;28;98026;-69
2023/07/01 00:14:04;;;;;;;;;;;;;;;19.46;42.80;100046.47;4925012;28;98366;-72
2023/07/01 00:16:30;;;;;;;;;;;;;;;19.47;42.94;100056.25;4941762;28;98631;-69
2023/07/01 00:18:57;;;;;;;;;;;;;;;19.48;43.13;100055.09;4940875;28;98072;-72
2023/07/01 00:21:23;;;;;;;;;;;;;;;19.45;43.05;100045.63;4926293;28;98138;-72
2023/07/01 00:23:49;;;;;;;;;;;;;;;19.46;42.91;100044.53;4926424;28;98088;-69
2023/07/01 00:26:15;;;;;;;;;;;;;;;19.45;42.94;100042.91;4928653;28;98656;-72
2023/07/01 00:28:41;;;;;;;;;;;;;;;19.43;43.07;100044.38;4926868;28;99749;-72
2023/07/01 00:31:08;;;;;;;;;;;;;;;19.41;43.01;100041.97;4945233;28;99914;-69
2023/07/01 00:33:34;;;;;;;;;;;;;;;19.40;43.04;100036.84;4921958;28;98116;-72
2023/07/01 00:36:01;;;;;;;;;;;;;;;19.38;43.12;100032.53;4929229;28;99059;-69
2023/07/01 00:38:29;;;;;;;;;;;;;;;19.38;43.15;100038.00;4927790;28;98374;-69
2023/07/01 00:40:55;;;;;;;;;;;;;;;19.36;42.97;100040.25;4925843;28;98116;-71
2023/07/01 00:43:22;;;;;;;;;;;;;;;19.34;43.09;100039.81;4926432;28;97851;-69
2023/07/01 00:45:49;;;;;;;;;;;;;;;19.32;43.00;100035.81;4923102;28;98786;-70
2023/07/01 00:48:29;;;;;;;;;;;;;;;19.31;43.08;100037.75;4923719;28;98062;-72
2023/07/01 00:50:56;;;;;;;;;;;;;;;19.29;43.03;100033.75;4933675;28;98168;-72
2023/07/01 00:53:23;;;;;;;;;;;;;;;19.27;43.26;100027.81;4927121;28;98343;-72
2023/07/01 00:55:49;;;;;;;;;;;;;;;19.25;43.24;100027.34;4942521;28;98005;-72
2023/07/01 00:58:15;;;;;;;;;;;;;;;19.20;43.22;100014.69;4926948;28;98375;-72
2023/07/01 01:00:41;;;;;;;;;;;;;;;19.19;43.21;100028.72;4920735;28;98073;-72
2023/07/01 01:03:28;;;;;;;;;;;;;;;19.16;43.09;100016.50;4920826;28;99687;-69
2023/07/01 01:06:11;;;;;;;;;;;;;;;19.16;43.21;100010.25;4930654;28;98264;-69
2023/07/01 01:08:59;;;;;;;;;;;;;;;19.15;43.04;100004.00;4932060;28;98564;-71
2023/07/01 01:11:26;;;;;;;;;;;;;;;19.14;43.04;99999.66;4925932;28;97963;-70
2023/07/01 01:13:53;;;;;;;;;;;;;;;19.14;43.08;99999.66;4929661;27;97982;-70
2023/07/01 01:16:19;;;;;;;;;;;;;;;19.11;43.14;99995.66;4932213;27;98078;-72
2023/07/01 01:18:47;;;;;;;;;;;;;;;19.11;43.27;100006.59;4930801;28;98261;-70
2023/07/01 01:21:15;;;;;;;;;;;;;;;19.09;42.99;100000.66;4940535;28;100284;-72
2023/07/01 01:23:52;;;;;;;;;;;;;;;19.09;43.19;100005.31;4946780;28;98411;-72
2023/07/01 01:26:19;;;;;;;;;;;;;;;19.07;43.10;99993.94;4929731;28;98221;-72
2023/07/01 01:28:46;;;;;;;;;;;;;;;19.06;43.14;99990.44;4943415;27;98174;-72
2023/07/01 01:31:13;;;;;;;;;;;;;;;19.03;43.16;99993.81;4923152;28;98110;-72
2023/07/01 01:33:42;;;;;;;;;;;;;;;19.03;43.29;99999.28;4928206;27;98075;-70
2023/07/01 01:36:13;;;;;;;;;;;;;;;19.02;43.09;100008.63;4927948;27;98257;-70
2023/07/01 01:38:41;;;;;;;;;;;;;;;18.98;43.30;100002.22;4944205;27;98220;-69
2023/07/01 01:41:16;;;;;;;;;;;;;;;18.95;43.21;99999.38;4943457;28;99753;-72
2023/07/01 01:44:05;;;;;;;;;;;;;;;18.91;43.10;99999.22;4944091;27;98681;-69
2023/07/01 01:46:32;;;;;;;;;;;;;;;18.85;43.25;99995.88;4943483;28;99068;-69
2023/07/01 01:49:01;;;;;;;;;;;;;;;18.83;43.25;100003.63;4929787;27;98327;-72
2023/07/01 01:51:28;;;;;;;;;;;;;;;18.79;43.27;99997.22;4949289;28;99829;-70
2023/07/01 01:53:55;;;;;;;;;;;;;;;18.75;43.43;99993.56;4926820;28;98090;-69
2023/07/01 01:56:21;;;;;;;;;;;;;;;18.73;43.25;99984.09;4924463;28;98145;-72
2023/07/01 01:58:48;;;;;;;;;;;;;;;18.73;43.33;99995.03;4946077;27;98001;-72
2023/07/01 02:01:15;;;;;;;;;;;;;;;18.72;43.25;99991.50;4926567;28;98018;-72
2023/07/01 02:03:43;;;;;;;;;;;;;;;18.72;43.42;99988.78;4945844;27;98158;-73
2023/07/01 02:06:09;;;;;;;;;;;;;;;18.72;43.14;99988.78;4929080;28;98113;-72
2023/07/01 02:08:37;;;;;;;;;;;;;;;18.70;43.36;99982.00;4946995;27;98822;-72
2023/07/01 02:11:04;;;;;;;;;;;;;;;18.69;43.44;99983.94;4941779;27;98175;-70
2023/07/01 02:13:30;;;;;;;;;;;;;;;18.68;43.27;99981.56;4948180;28;100833;-72
2023/07/01 02:15:57;;;;;;;;;;;;;;;18.67;43.46;99972.56;4932423;27;97895;-72
2023/07/01 02:18:24;;;;;;;;;;;;;;;18.64;43.26;99973.22;4935052;28;98124;-72
2023/07/01 02:20:50;;;;;;;;;;;;;;;18.62;43.22;99964.56;4931530;28;98268;-72
2023/07/01 02:23:17;;;;;;;;;;;;;;;18.59;43.34;99966.06;4933418;28;98140;-70
2023/07/01 02:25:45;;;;;;;;;;;;;;;18.58;43.33;99960.91;4948662;27;97978;-70
2023/07/01 02:28:13;;;;;;;;;;;;;;;18.56;43.29;99957.72;4944972;28;99066;-69
2023/07/01 02:30:40;;;;;;;;;;;;;;;18.54;43.44;99960.78;4943436;27;98492;-70
2023/07/01 02:33:07;;;;;;;;;;;;;;;18.52;43.48;99954.88;4924928;28;99692;-69
2023/07/01 02:35:33;;;;;;;;;;;;;;;18.51;43.18;99953.28;4929960;28;98373;-70
2023/07/01 02:37:59;;;;;;;;;;;;;;;18.50;43.54;99953.59;4932295;27;97980;-70
2023/07/01 02:40:26;;;;;;;;;;;;;;;18.49;43.50;99958.25;4928868;28;98070;-72
2023/07/01 02:42:53;;;;;;;;;;;;;;;18.51;43.45;99960.63;4933067;27;98281;-70
2023/07/01 02:45:20;;;;;;;;;;;;;;;18.50;43.43;99951.66;4933737;28;98246;-70
2023/07/01 02:47:47;;;;;;;;;;;;;;;18.52;43.29;99954.06;4944370;28;98436;-70
2023/07/01 02:50:14;;;;;;;;;;;;;;;18.53;43.52;99951.00;4932568;28;102132;-72
2023/07/01 02:52:41;;;;;;;;;;;;;;;18.54;43.33;99957.25;4947454;27;98376;-70
2023/07/01 02:55:07;;;;;;;;;;;;;;;18.55;43.31;99947.91;4934126;27;98343;-73
2023/07/01 02:57:34;;;;;;;;;;;;;;;18.54;43.51;99943.59;4934286;27;98144;-70
2023/07/01 03:00:01;;;;;;;;;;;;;;;18.57;43.44;99953.84;4930570;28;98070;-71
2023/07/01 03:02:28;;;;;;;;;;;;;;;18.58;43.48;99947.25;4930536;28;98166;-72
2023/07/01 03:04:54;;;;;;;;;;;;;;;18.59;43.45;99954.34;4934056;27;99071;-72
2023/07/01 03:07:21;;;;;;;;;;;;;;;18.59;43.29;99955.13;4930747;28;98423;-72
2023/07/01 03:09:48;;;;;;;;;;;;;;;18.59;43.28;99952.41;4942391;27;100035;-70
2023/07/01 03:12:15;;;;;;;;;;;;;;;18.61;43.46;99954.78;4924983;28;97846;-69
2023/07/01 03:14:43;;;;;;;;;;;;;;;18.62;43.33;99950.91;4948418;28;98054;-69
2023/07/01 03:17:11;;;;;;;;;;;;;;;18.63;43.39;99950.59;4927881;28;98132;-70
2023/07/01 03:19:40;;;;;;;;;;;;;;;18.62;43.35;99945.47;4930590;28;99503;-72
2023/07/01 03:22:06;;;;;;;;;;;;;;;18.63;43.47;99941.63;4934106;27;98144;-72
2023/07/01 03:24:36;;;;;;;;;;;;;;;18.63;43.26;99941.63;4929345;28;98572;-70
2023/07/01 03:27:03;;;;;;;;;;;;;;;18.63;43.31;99944.34;4927587;28;99586;-71
2023/07/01 03:29:32;;;;;;;;;;;;;;;18.62;43.26;99940.00;4950027;28;98146;-70
2023/07/01 03:31:58;;;;;;;;;;;;;;;18.62;43.27;99943.53;4931117;27;98223;-70
2023/07/01 03:34:25;;;;;;;;;;;;;;;18.63;43.46;99938.91;4931368;28;98116;-70
2023/07/01 03:36:52;;;;;;;;;;;;;;;18.62;43.40;99951.72;4949647;27;98203;-70
2023/07/01 03:39:18;;;;;;;;;;;;;;;18.64;43.37;99944.00;4924672;28;98653;-72
2023/07/01 03:41:45;;;;;;;;;;;;;;;18.65;43.40;99942.88;4930127;28;98422;-72
2023/07/01 03:44:11;;;;;;;;;;;;;;;18.67;43.43;99942.56;4943426;28;98153;-72
2023/07/01 03:46:38;;;;;;;;;;;;;;;18.69;43.36;99942.22;4944531;28;97894;-71
2023/07/01 03:49:06;;;;;;;;;;;;;;;18.70;43.44;99939.16;4943946;28;98056;-70
2023/07/01 03:51:33;;;;;;;;;;;;;;;18.70;43.50;99936.44;4929406;28;98495;-70
2023/07/01 03:54:00;;;;;;;;;;;;;;;18.70;43.32;99941.91;4924464;28;97828;-70
2023/07/01 03:56:27;;;;;;;;;;;;;;;18.70;43.44;99938.34;4932046;28;98225;-71
2023/07/01 03:58:54;;;;;;;;;;;;;;;18.70;43.51;99941.06;4947834;27;99361;-72
2023/07/01 04:01:22;;;;;;;;;;;;;;;18.67;43.36;99941.72;4941938;28;98392;-70
2023/07/01 04:03:48;;;;;;;;;;;;;;;18.68;43.40;99943.34;4935269;27;98330;-70
2023/07/01 04:06:15;;;;;;;;;;;;;;;18.67;43.54;99934.38;4944188;28;98015;-69
2023/07/01 04:08:41;;;;;;;;;;;;;;;18.67;43.38;99937.09;4927339;28;98423;-72
2023/07/01 04:11:07;;;;;;;;;;;;;;;18.69;43.43;99940.28;4923591;28;99223;-71
2023/07/01 04:13:34;;;;;;;;;;;;;;;18.70;43.36;99933.69;4930371;28;98506;-72
2023/07/01 04:16:00;;;;;;;;;;;;;;;18.75;43.42;99938.97;4948374;27;97966;-70
2023/07/01 04:18:26;;;;;;;;;;;;;;;18.79;43.36;99933.66;4941455;28;98522;-70
2023/07/01 04:20:53;;;;;;;;;;;;;;;18.80;43.45;99933.31;4932484;28;99599;-72
2023/07/01 04:23:19;;;;;;;;;;;;;;;18.81;43.32;99932.16;4930232;28;98032;-72
2023/07/01 04:25:46;;;;;;;;;;;;;;;18.82;43.32;99925.59;4934006;27;101312;-72
2023/07/01 04:28:12;;;;;;;;;;;;;;;18.85;43.42;99938.56;4935858;27;99401;-72
2023/07/01 04:30:43;;;;;;;;;;;;;;;18.91;43.33;99935.63;4932075;27;98184;-70
2023/07/01 04:33:09;;;;;;;;;;;;;;;18.91;43.16;99933.69;4943349;28;98184;-70
2023/07/01 04:35:35;;;;;;;;;;;;;;;18.94;43.37;99933.00;4949342;28;98190;-70
2023/07/01 04:38:03;;;;;;;;;;;;;;;18.99;43.41;99945.66;4944261;27;99701;-70
2023/07/01 04:40:29;;;;;;;;;;;;;;;19.03;43.05;99939.19;4938099;28;97924;-70
2023/07/01 04:42:57;;;;;;;;;;;;;;;19.09;43.18;99940.56;4934049;27;98100;-70
2023/07/01 04:45:26;;;;;;;;;;;;;;;19.13;43.18;99944.22;4941277;28;97978;-70
2023/07/01 04:47:53;;;;;;;;;;;;;;;19.19;42.92;99944.81;4933915;28;98072;-71
2023/07/01 04:50:20;;;;;;;;;;;;;;;19.30;43.15;99939.72;4928143;28;98298;-72
2023/07/01 04:52:49;;;;;;;;;;;;;;;19.45;42.93;99933.59;4930352;27;97745;-69
2023/07/01 04:55:18;;;;;;;;;;;;;;;19.64;42.53;99938.53;4929924;28;97841;-69
2023/07/01 04:57:46;;;;;;;;;;;;;;;19.76;42.63;99933.06;4945967;27;99954;-70
2023/07/01 05:00:13;;;;;;;;;;;;;;;19.92;42.40;99935.13;4922422;28;100098;-69
2023/07/01 05:02:39;;;;;;;;;;;;;;;19.96;42.33;99931.38;4931134;28;98708;-71
2023/07/01 05:05:07;;;;;;;;;;;;;;;20.00;42.62;99942.41;4939468;27;98511;-70
2023/07/01 05:07:34;;;;;;;;;;;;;;;19.99;42.62;99938.88;4926015;27;99426;-69
2023/07/01 05:10:00;;;;;;;;;;;;;;;20.00;42.61;99945.16;4921715;27;98364;-68
2023/07/01 05:12:26;;;;;;;;;;;;;;;20.03;42.62;99936.28;4927204;27;98018;-72
2023/07/01 05:14:54;;;;;;;;;;;;;;;20.13;42.57;99948.69;4943591;28;98919;-71
2023/07/01 05:17:21;;;;;;;;;;;;;;;20.16;42.61;99946.06;4924131;28;98235;-71
2023/07/01 05:19:48;;;;;;;;;;;;;;;20.17;42.60;99944.94;4925073;27;98344;-71
2023/07/01 05:22:15;;;;;;;;;;;;;;;20.18;42.63;99941.03;4927229;28;98438;-69
2023/07/01 05:24:42;;;;;;;;;;;;;;;20.26;42.67;99948.31;4927362;28;98302;-71
2023/07/01 05:27:08;;;;;;;;;;;;;;;20.41;42.27;99951.50;4927060;27;98360;-69
2023/07/01 05:29:35;;;;;;;;;;;;;;;20.54;42.33;99944.88;4928554;28;97831;-71
2023/07/01 05:32:02;;;;;;;;;;;;;;;20.64;42.29;99951.81;4943724;27;99235;-69
2023/07/01 05:34:29;;;;;;;;;;;;;;;20.78;42.24;99957.69;4938140;27;98322;-69
2023/07/01 05:36:56;;;;;;;;;;;;;;;20.95;41.98;99938.22;4925127;28;98554;-72
2023/07/01 05:39:22;;;;;;;;;;;;;;;21.01;42.00;99949.72;4935365;28;98417;-71
2023/07/01 05:41:48;;;;;;;;;;;;;;;20.97;42.25;99954.31;4936091;28;98095;-69
2023/07/01 05:44:16;;;;;;;;;;;;;;;20.96;42.27;99958.19;4928469;28;98215;-69
2023/07/01 05:46:43;;;;;;;;;;;;;;;20.95;42.35;99960.16;4937721;27;98303;-72
2023/07/01 05:49:10;;;;;;;;;;;;;;;20.91;42.28;99961.19;4924493;27;98263;-69
2023/07/01 05:51:37;;;;;;;;;;;;;;;20.84;42.40;99957.09;4921170;27;98321;-69
2023/07/01 05:54:04;;;;;;;;;;;;;;;21.30;41.89;99954.84;4940236;28;98664;-71
2023/07/01 05:56:30;;;;;;;;;;;;;;;21.70;41.56;99959.41;4921675;27;98337;-71
2023/07/01 05:58:57;;;;;;;;;;;;;;;22.08;41.62;99957.94;4927683;27;99643;-72
2023/07/01 06:01:23;;;;;;;;;;;;;;;22.45;41.36;99952.91;4943931;27;98231;-72
2023/07/01 06:03:50;;;;;;;;;;;;;;;22.92;41.16;99954.69;4943041;27;98010;-71
2023/07/01 06:06:17;;;;;;;;;;;;;;;23.34;40.79;99962.16;4927909;28;98660;-69
2023/07/01 06:08:43;;;;;;;;;;;;;;;23.53;41.03;99947.56;4924788;28;98242;-72
2023/07/01 06:11:10;;;;;;;;;;;;;;;24.13;40.71;99944.19;4914171;28;99875;-72
2023/07/01 06:13:46;;;;;;;;;;;;;;;24.74;40.28;99949.38;4922532;28;98278;-72
2023/07/01 06:16:13;;;;;;;;;;;;;;;25.92;39.29;99953.34;4936054;28;100221;-71
2023/07/01 06:18:39;;;;;;;;;;;;;;;25.05;40.38;99950.13;4915697;28;98044;-72
2023/07/01 06:21:06;;;;;;;;;;;;;;;25.62;39.73;99956.25;4922180;28;98846;-70
2023/07/01 06:23:36;;;;;;;;;;;;;;;26.11;39.77;99946.78;4936385;28;98059;-69
2023/07/01 06:26:05;;;;;;;;;;;;;;;27.01;39.22;99953.53;4932601;28;99164;-72
2023/07/01 06:28:32;;;;;;;;;;;;;;;27.68;39.00;99943.75;4955075;28;99763;-72
2023/07/01 06:30:59;;;;;;;;;;;;;;;28.56;38.56;99946.81;4936893;28;98162;-70
2023/07/01 06:33:25;;;;;;;;;;;;;;;29.44;37.94;99953.09;4940657;28;98028;-70
2023/07/01 06:35:51;;;;;;;;;;;;;;;30.20;37.70;99954.06;4918721;28;98302;-72
2023/07/01 06:38:18;;;;;;;;;;;;;;;30.51;37.86;99951.34;4923863;28;98065;-70
2023/07/01 06:40:45;;;;;;;;;;;;;;;30.88;37.95;99938.56;4925039;28;98098;-71
2023/07/01 06:43:11;;;;;;;;;;;;;;;31.16;37.37;99951.28;4925121;28;98160;-71
2023/07/01 06:45:38;;;;;;;;;;;;;;;31.03;37.84;99939.97;4923401;28;99311;-71
2023/07/01 06:48:05;;;;;;;;;;;;;;;30.93;37.97;99943.66;4921861;28;98522;-73
2023/07/01 06:50:31;;;;;;;;;;;;;;;30.96;38.14;99938.06;4918908;28;100189;-71
2023/07/01 06:52:58;;;;;;;;;;;;;;;31.02;38.08;99943.97;4938418;28;98450;-72
2023/07/01 06:55:24;;;;;;;;;;;;;;;31.10;38.14;99925.16;4924446;28;99811;-70
2023/07/01 06:57:52;;;;;;;;;;;;;;;31.40;37.99;99927.91;4924980;28;98497;-71
2023/07/01 07:00:19;;;;;;;;;;;;;;;31.70;37.72;99929.78;4922774;28;98598;-72
2023/07/01 07:02:46;;;;;;;;;;;;;;;32.05;37.58;99924.81;4923754;28;98695;-72
2023/07/01 07:05:12;;;;;;;;;;;;;;;32.37;37.19;99932.56;4925906;28;99392;-71
2023/07/01 07:07:40;;;;;;;;;;;;;;;32.68;37.28;99924.00;4925649;28;98179;-72
2023/07/01 07:10:07;;;;;;;;;;;;;;;33.14;36.47;99928.56;4924348;28;97979;-72
2023/07/01 07:12:33;;;;;;;;;;;;;;;33.70;36.36;99922.81;4926969;28;98337;-70
2023/07/01 07:14:59;;;;;;;;;;;;;;;34.04;36.57;99923.59;4941926;28;98299;-73
2023/07/01 07:17:26;;;;;;;;;;;;;;;34.23;36.34;99916.25;4923931;28;98379;-71
2023/07/01 07:19:52;;;;;;;;;;;;;;;34.09;36.33;99909.84;4909711;28;99089;-70
2023/07/01 07:22:19;;;;;;;;;;;;;;;34.42;36.08;99909.72;4909135;28;98166;-72
2023/07/01 07:24:45;;;;;;;;;;;;;;;34.72;36.27;99905.66;4924125;28;98064;-70
2023/07/01 07:27:12;;;;;;;;;;;;;;;35.01;35.99;99905.59;4927030;28;99258;-70
2023/07/01 07:29:42;;;;;;;;;;;;;;;35.31;35.92;99907.03;4917223;28;98115;-70
2023/07/01 07:32:09;;;;;;;;;;;;;;;35.51;35.62;99892.00;4925681;28;98265;-71
2023/07/01 07:34:35;;;;;;;;;;;;;;;35.56;35.80;99888.63;4940675;28;98298;-74
2023/07/01 07:37:01;;;;;;;;;;;;;;;35.72;35.57;99896.88;4919173;28;98407;-73
2023/07/01 07:39:28;;;;;;;;;;;;;;;35.89;35.63;99889.88;4923999;28;98550;-73
2023/07/01 07:41:55;;;;;;;;;;;;;;;36.22;35.48;99888.75;4923864;28;97998;-70
2023/07/01 07:44:21;;;;;;;;;;;;;;;36.50;35.10;99887.69;4924032;28;99556;-73
2023/07/01 07:46:47;;;;;;;;;;;;;;;34.85;37.20;99880.50;4912004;28;98230;-70
2023/07/01 07:49:16;;;;;;;;;;;;;;;35.63;36.05;99866.75;4925801;28;98159;-73
2023/07/01 07:51:43;;;;;;;;;;;;;;;36.34;35.28;99873.84;4919607;28;97971;-70
2023/07/01 07:54:10;;;;;;;;;;;;;;;36.81;34.79;99867.25;4922441;28;97927;-70
2023/07/01 07:56:37;;;;;;;;;;;;;;;37.40;34.60;99867.28;4937909;28;98483;-70
2023/07/01 07:59:04;;;;;;;;;;;;;;;37.92;33.96;99871.88;4926069;28;98210;-73
2023/07/01 08:01:30;;;;;;;;;;;;;;;38.42;33.84;99868.88;4925541;28;98319;-73
2023/07/01 08:03:57;;;;;;;;;;;;;;;38.94;33.86;99864.78;4925905;28;98256;-73
2023/07/01 08:06:24;;;;;;;;;;;;;;;38.73;34.25;99874.25;4924027;28;99885;-73
2023/07/01 08:08:50;;;;;;;;;;;;;;;39.40;33.60;99860.94;4917590;28;98439;-71
2023/07/01 08:11:17;;;;;;;;;;;;;;;40.06;33.18;99857.91;4910579;28;98382;-74
2023/07/01 08:13:44;;;;;;;;;;;;;;;40.60;32.74;99861.44;4927150;28;98484;-70
2023/07/01 08:16:12;;;;;;;;;;;;;;;41.19;32.60;99850.00;4924332;28;97905;-73
2023/07/01 08:18:39;;;;;;;;;;;;;;;41.80;32.16;99851.25;4926772;28;98468;-71
2023/07/01 08:21:06;;;;;;;;;;;;;;;42.35;32.24;99851.06;4925901;28;98298;-71
2023/07/01 08:23:33;;;;;;;;;;;;;;;42.93;31.96;99850.97;4915865;28;100221;-74
2023/07/01 08:26:00;;;;;;;;;;;;;;;43.31;31.46;99855.34;4925526;28;99034;-73
2023/07/01 08:28:31;;;;;;;;;;;;;;;43.74;31.74;99841.03;4925299;28;101614;-73
2023/07/01 08:30:58;;;;;;;;;;;;;;;44.15;31.31;99842.69;4916640;28;99472;-68
2023/07/01 08:33:26;;;;;;;;;;;;;;;44.46;31.26;99838.84;4920144;28;98552;-72
2023/07/01 08:35:52;;;;;;;;;;;;;;;44.80;31.07;99839.56;4941034;28;99955;-72
2023/07/01 08:38:19;;;;;;;;;;;;;;;44.82;31.28;99826.41;4922697;28;98267;-69
2023/07/01 08:40:50;;;;;;;;;;;;;;;44.79;31.45;99829.50;4926097;28;98055;-72
2023/07/01 08:43:16;;;;;;;;;;;;;;;44.89;31.10;99832.88;4923321;28;99030;-67
2023/07/01 08:45:42;;;;;;;;;;;;;;;45.13;31.18;99815.25;4937958;28;99169;-69
2023/07/01 08:48:09;;;;;;;;;;;;;;;45.57;31.06;99819.19;4926299;28;100019;-68
2023/07/01 08:50:54;;;;;;;;;;;;;;;45.80;30.91;99814.91;4939492;28;97893;-72
2023/07/01 08:53:20;;;;;;;;;;;;;;;45.84;31.09;99814.63;4938000;28;97982;-69
2023/07/01 08:55:46;;;;;;;;;;;;;;;46.18;30.99;99815.94;4924561;28;98489;-68
2023/07/01 08:58:14;;;;;;;;;;;;;;;46.49;30.84;99817.44;4925369;28;98195;-73
2023/07/01 09:00:40;;;;;;;;;;;;;;;46.80;30.35;99811.72;4924685;28;98384;-68
2023/07/01 09:03:07;;;;;;;;;;;;;;;47.09;30.52;99810.91;4922486;28;98053;-68
2023/07/01 09:05:34;;;;;;;;;;;;;;;47.21;30.47;99800.13;4933958;28;99734;-72
2023/07/01 09:08:01;;;;;;;;;;;;;;;47.27;30.38;99800.81;4927696;28;98262;-72
2023/07/01 09:10:28;;;;;;;;;;;;;;;47.50;29.99;99797.69;4933710;28;98486;-69
2023/07/01 09:12:55;;;;;;;;;;;;;;;47.44;30.42;99797.78;4955711;28;100696;-71
2023/07/01 09:15:21;;;;;;;;;;;;;;;47.53;30.13;99788.81;4916385;28;98138;-71
2023/07/01 09:17:48;;;;;;;;;;;;;;;47.64;30.21;99785.03;4917977;28;98343;-71
2023/07/01 09:20:15;;;;;;;;;;;;;;;47.93;30.01;99786.91;4934787;28;100667;-72
2023/07/01 09:22:47;;;;;;;;;;;;;;;47.27;30.41;99777.22;4955776;28;98126;-71
2023/07/01 09:25:27;;;;;;;;;;;;;;;46.29;31.30;99772.34;4927060;28;98360;-69
2023/07/01 09:27:56;;;;;;;;;;;;;;;45.49;31.73;99767.78;4924728;28;98496;-72
2023/07/01 09:30:28;;;;;;;;;;;;;;;45.00;32.38;99764.59;4937731;28;99679;-72
2023/07/01 09:33:12;;;;;;;;;;;;;;;44.77;32.43;99761.09;4939376;28;98421;-72
2023/07/01 09:35:42;;;;;;;;;;;;;;;44.85;32.00;99761.34;4937743;28;98116;-68
2023/07/01 09:38:09;;;;;;;;;;;;;;;45.25;31.73;99759.88;4923656;28;97985;-68
2023/07/01 09:40:36;;;;;;;;;;;;;;;45.95;31.07;99760.50;4922920;28;98013;-71
2023/07/01 09:43:02;;;;;;;;;;;;;;;46.50;30.66;99744.97;4917471;28;98193;-71
2023/07/01 09:45:28;;;;;;;;;;;;;;;47.01;30.22;99758.66;4937457;28;98179;-68
2023/07/01 09:47:55;;;;;;;;;;;;;;;47.54;29.71;99763.91;4942300;28;97916;-69
2023/07/01 09:50:29;;;;;;;;;;;;;;;46.50;30.38;99742.13;4922582;28;98015;-69
2023/07/01 09:52:56;;;;;;;;;;;;;;;46.03;30.83;99736.59;4935913;28;98265;-68
2023/07/01 09:55:22;;;;;;;;;;;;;;;46.96;30.08;99739.53;4922170;28;98230;-72
2023/07/01 09:57:49;;;;;;;;;;;;;;;47.40;29.62;99743.09;4916615;28;98173;-72
2023/07/01 10:00:16;;;;;;;;;;;;;;;47.87;29.40;99731.22;4923279;28;98944;-70
2023/07/01 10:02:47;;;;;;;;;;;;;;;48.43;29.11;99725.34;4919739;28;98326;-72
2023/07/01 10:05:14;;;;;;;;;;;;;;;48.62;29.18;99718.75;4915879;28;98263;-68
2023/07/01 10:07:42;;;;;;;;;;;;;;;48.79;29.10;99713.47;4923034;28;99698;-71
2023/07/01 10:10:17;;;;;;;;;;;;;;;48.83;29.43;99716.75;4922486;28;97816;-68
2023/07/01 10:12:47;;;;;;;;;;;;;;;48.65;29.26;99715.53;4954416;28;98206;-73
2023/07/01 10:15:15;;;;;;;;;;;;;;;48.45;29.45;99716.19;4949750;28;98600;-68
2023/07/01 10:17:48;;;;;;;;;;;;;;;48.55;29.76;99719.41;4914530;28;98640;-74
2023/07/01 10:20:34;;;;;;;;;;;;;;;48.59;29.32;99716.97;4937620;28;97973;-73
2023/07/01 10:23:01;;;;;;;;;;;;;;;48.56;29.65;99704.56;4938992;28;100212;-67
2023/07/01 10:25:40;;;;;;;;;;;;;;;45.89;31.46;99700.78;4921518;28;99424;-67
2023/07/01 10:28:10;;;;;;;;;;;;;;;47.13;30.34;99693.72;4939634;28;98828;-74
2023/07/01 10:30:42;;;;;;;;;;;;;;;47.30;30.06;99696.31;4919864;28;98255;-67
2023/07/01 10:33:27;;;;;;;;;;;;;;;47.41;30.19;99688.38;4950313;28;98363;-74
2023/07/01 10:36:02;;;;;;;;;;;;;;;47.65;29.87;99689.56;4954245;28;97949;-68
2023/07/01 10:38:31;;;;;;;;;;;;;;;47.97;29.92;99683.84;4958264;28;98143;-74
2023/07/01 10:40:58;;;;;;;;;;;;;;;47.94;30.03;99687.78;4926649;28;97966;-74
2023/07/01 10:43:29;;;;;;;;;;;;;;;48.24;29.48;99683.91;4919743;28;98125;-73
2023/07/01 10:46:17;;;;;;;;;;;;;;;47.36;30.26;99688.47;4957519;28;98762;-66
2023/07/01 10:49:03;;;;;;;;;;;;;;;48.08;29.60;99669.38;4952526;28;98814;-74
2023/07/01 10:51:52;;;;;;;;;;;;;;;44.70;32.67;99660.16;4943762;28;98075;-67
2023/07/01 10:54:32;;;;;;;;;;;;;;;46.47;30.46;99652.03;4927467;28;98220;-67
2023/07/01 10:57:13;;;;;;;;;;;;;;;43.44;33.23;99653.56;4918393;28;98147;-67
2023/07/01 10:59:40;;;;;;;;;;;;;;;41.54;34.45;99647.66;4927440;28;98553;-73
2023/07/01 11:02:07;;;;;;;;;;;;;;;41.16;34.27;99641.91;4924248;28;98278;-67
2023/07/01 11:04:51;;;;;;;;;;;;;;;40.73;34.22;99650.13;4923311;28;98186;-67
2023/07/01 11:07:27;;;;;;;;;;;;;;;40.80;33.64;99634.81;4952509;28;98252;-72
2023/07/01 11:09:54;;;;;;;;;;;;;;;40.57;33.55;99642.25;4922673;28;98337;-72
2023/07/01 11:12:20;;;;;;;;;;;;;;;39.89;34.19;99639.66;4926283;28;98167;-66
2023/07/01 11:14:46;;;;;;;;;;;;;;;40.43;33.04;99643.81;4937835;28;98257;-72
2023/07/01 11:17:17;;;;;;;;;;;;;;;41.12;32.13;99647.00;4940587;28;98317;-66
2023/07/01 11:19:46;;;;;;;;;;;;;;;38.61;34.74;99636.78;4927705;28;98346;-67
2023/07/01 11:22:16;;;;;;;;;;;;;;;37.48;35.09;99632.56;4926473;28;98103;-67
2023/07/01 11:24:43;;;;;;;;;;;;;;;39.27;33.04;99633.78;4940592;28;98195;-66
2023/07/01 11:27:09;;;;;;;;;;;;;;;39.61;33.02;99627.91;4925847;28;98179;-72
2023/07/01 11:29:41;;;;;;;;;;;;;;;40.29;32.25;99626.97;4914649;28;98202;-67
2023/07/01 11:32:15;;;;;;;;;;;;;;;40.68;31.82;99628.28;4940333;28;98457;-71
2023/07/01 11:34:47;;;;;;;;;;;;;;;41.00;31.62;99631.22;4926736;28;100636;-72
2023/07/01 11:37:23;;;;;;;;;;;;;;;40.85;31.96;99630.50;4922913;28;98004;-66
2023/07/01 11:39:50;;;;;;;;;;;;;;;39.91;32.72;99606.91;4915713;28;98205;-73
2023/07/01 11:42:16;;;;;;;;;;;;;;;39.67;33.07;99609.06;4920613;28;99412;-67
2023/07/01 11:44:43;;;;;;;;;;;;;;;39.81;32.61;99608.28;4923775;28;99252;-71
2023/07/01 11:47:12;;;;;;;;;;;;;;;39.56;32.65;99606.84;4928677;28;99103;-66
2023/07/01 11:49:39;;;;;;;;;;;;;;;39.64;32.68;99602.38;4931755;28;98117;-66
2023/07/01 11:52:08;;;;;;;;;;;;;;;39.75;32.46;99598.97;4937622;28;98038;-75
2023/07/01 11:54:48;;;;;;;;;;;;;;;39.45;32.72;99598.19;4924328;28;98291;-67
2023/07/01 11:57:15;;;;;;;;;;;;;;;38.92;33.38;99599.81;4940804;28;97866;-71
2023/07/01 11:59:42;;;;;;;;;;;;;;;39.40;32.95;99604.53;4941456;28;100088;-72
2023/07/01 12:02:09;;;;;;;;;;;;;;;38.92;33.12;99602.63;4942277;28;98470;-66
2023/07/01 12:04:35;;;;;;;;;;;;;;;37.72;34.32;99596.91;4933691;28;97998;-71
2023/07/01 12:07:31;;;;;;;;;;;;;;;37.77;33.67;99595.50;4922328;28;100846;-67
2023/07/01 12:10:09;;;;;;;;;;;;;;;38.40;33.03;99598.47;4916299;28;98283;-71
2023/07/01 12:12:35;;;;;;;;;;;;;;;37.88;33.43;99598.56;4938960;28;98154;-66
2023/07/01 12:15:02;;;;;;;;;;;;;;;37.09;34.59;99596.56;4923812;28;105893;-69
2023/07/01 12:17:30;;;;;;;;;;;;;;;37.34;34.01;99584.22;4926403;28;97985;-67
2023/07/01 12:19:58;;;;;;;;;;;;;;;36.44;34.79;99591.41;4918565;28;98819;-72
2023/07/01 12:22:24;;;;;;;;;;;;;;;36.97;34.24;99585.53;4923388;28;99060;-66
2023/07/01 12:24:57;;;;;;;;;;;;;;;36.49;34.33;99588.75;4937370;28;99709;-65
2023/07/01 12:27:23;;;;;;;;;;;;;;;35.75;35.14;99581.34;4921773;28;98137;-74
2023/07/01 12:29:49;;;;;;;;;;;;;;;35.26;35.40;99585.59;4938027;28;97974;-67
2023/07/01 12:32:15;;;;;;;;;;;;;;;35.52;34.74;99574.25;4921998;28;98353;-74
2023/07/01 12:34:41;;;;;;;;;;;;;;;36.45;33.94;99578.91;4940002;28;100134;-73
2023/07/01 12:37:07;;;;;;;;;;;;;;;37.01;33.41;99572.09;4943022;28;127781;-67
2023/07/01 12:39:35;;;;;;;;;;;;;;;37.50;33.36;99571.88;4926023;28;106103;-74
2023/07/01 12:42:01;;;;;;;;;;;;;;;37.73;32.77;99561.94;4926208;28;99667;-73
2023/07/01 12:44:27;;;;;;;;;;;;;;;37.87;32.94;99573.72;4923607;28;99411;-68
2023/07/01 12:46:53;;;;;;;;;;;;;;;38.12;32.71;99566.91;4923212;28;99360;-73
2023/07/01 12:49:19;;;;;;;;;;;;;;;38.28;33.13;99563.66;4920376;28;119889;-67
2023/07/01 12:51:45;;;;;;;;;;;;;;;38.60;32.37;99564.88;4943241;28;97918;-74